Time;durP1;ratioP1;P1;durP2;ratioP2;P2;SDS_P1;SDS_P2;PMS_P1;PMS_P2;Temp;Humidity;BMP_temperature;BMP_pressure;BME280_temperature;BME280_humidity;BME280_pressure;Samples;Min_cycle;Max_cycle;Signal;HPM_P1;HPM_P2
2021/12/19 00:01:11;;;;;;;38.23;18.60;;;;;;;;;;5094554;28;20397;-75
2021/12/19 00:04:02;;;;;;;47.20;20.57;;;;;;;;;;5094668;28;20471;-74
2021/12/19 00:09:21;;;;;;;40.27;18.60;;;;;;;;;;5078192;28;20405;-74
2021/12/19 00:11:47;;;;;;;44.40;20.47;;;;;;;;;;5094510;28;20484;-73
2021/12/19 00:14:13;;;;;;;35.40;18.63;;;;;;;;;;5094190;28;20923;-74
2021/12/19 00:16:39;;;;;;;41.70;18.53;;;;;;;;;;5094387;28;20446;-73
2021/12/19 00:19:05;;;;;;;40.83;18.53;;;;;;;;;;5094127;28;20903;-73
2021/12/19 00:21:31;;;;;;;37.13;17.23;;;;;;;;;;5094308;28;20493;-74
2021/12/19 00:23:57;;;;;;;44.67;21.10;;;;;;;;;;5092938;28;20928;-74
2021/12/19 00:26:23;;;;;;;48.40;19.90;;;;;;;;;;5094174;28;20451;-73
2021/12/19 00:28:50;;;;;;;43.17;20.37;;;;;;;;;;5094194;28;20412;-73
2021/12/19 00:31:16;;;;;;;42.03;19.67;;;;;;;;;;5094132;28;20409;-74
2021/12/19 00:33:43;;;;;;;41.93;19.03;;;;;;;;;;5093917;28;20403;-73
2021/12/19 00:36:09;;;;;;;47.08;20.30;;;;;;;;;;5094070;28;20521;-72
2021/12/19 00:38:36;;;;;;;43.60;21.42;;;;;;;;;;5093998;28;20173;-73
2021/12/19 00:41:03;;;;;;;43.03;19.27;;;;;;;;;;5093981;28;20170;-74
2021/12/19 00:43:36;;;;;;;43.90;19.43;;;;;;;;;;5093641;28;20464;-74
2021/12/19 00:46:07;;;;;;;48.57;20.10;;;;;;;;;;5094043;28;20879;-73
2021/12/19 00:48:38;;;;;;;37.67;18.30;;;;;;;;;;5093919;28;20534;-72
2021/12/19 00:51:04;;;;;;;44.60;19.87;;;;;;;;;;5093789;28;20416;-74
2021/12/19 00:53:30;;;;;;;40.03;18.77;;;;;;;;;;5093610;28;20892;-74
2021/12/19 00:55:56;;;;;;;42.93;19.30;;;;;;;;;;5092311;28;20408;-75
2021/12/19 00:58:22;;;;;;;45.57;20.80;;;;;;;;;;5093440;28;20935;-74
2021/12/19 01:00:48;;;;;;;42.33;18.90;;;;;;;;;;5093471;28;20851;-73
2021/12/19 01:03:15;;;;;;;46.20;20.47;;;;;;;;;;5092193;28;20826;-74
2021/12/19 01:05:42;;;;;;;48.70;20.57;;;;;;;;;;5093609;28;20410;-74
2021/12/19 01:08:08;;;;;;;44.30;22.03;;;;;;;;;;5092331;28;20482;-73
2021/12/19 01:10:36;;;;;;;38.77;19.23;;;;;;;;;;5092220;28;20413;-74
2021/12/19 01:13:02;;;;;;;43.00;20.90;;;;;;;;;;5092026;28;20417;-74
2021/12/19 01:15:29;;;;;;;43.97;19.67;;;;;;;;;;5093424;28;20408;-73
2021/12/19 01:17:55;;;;;;;39.47;18.30;;;;;;;;;;5092060;28;20421;-73
2021/12/19 01:20:22;;;;;;;41.63;19.10;;;;;;;;;;5093168;28;20896;-73
2021/12/19 01:22:49;;;;;;;45.37;20.70;;;;;;;;;;5093306;28;20479;-73
2021/12/19 01:25:15;;;;;;;43.17;20.80;;;;;;;;;;5093244;28;20439;-72
2021/12/19 01:27:41;;;;;;;48.20;22.20;;;;;;;;;;5092074;28;20774;-74
2021/12/19 01:30:08;;;;;;;43.20;20.60;;;;;;;;;;5092047;28;20408;-74
2021/12/19 01:32:34;;;;;;;50.13;21.97;;;;;;;;;;5093299;28;20416;-75
2021/12/19 01:35:00;;;;;;;51.50;20.67;;;;;;;;;;5093224;28;20395;-74
2021/12/19 01:37:27;;;;;;;42.70;20.33;;;;;;;;;;5093182;28;20499;-73
2021/12/19 01:39:53;;;;;;;51.07;21.90;;;;;;;;;;5092995;28;20400;-74
2021/12/19 01:42:20;;;;;;;43.80;20.00;;;;;;;;;;5093132;28;20433;-73
2021/12/19 01:44:46;;;;;;;44.20;20.43;;;;;;;;;;5091738;28;20468;-71
2021/12/19 01:47:13;;;;;;;44.13;19.97;;;;;;;;;;5093045;28;20437;-73
2021/12/19 01:49:39;;;;;;;48.57;20.67;;;;;;;;;;5091732;28;20978;-71
2021/12/19 01:52:05;;;;;;;50.43;20.73;;;;;;;;;;5091925;28;20400;-72
2021/12/19 01:54:31;;;;;;;47.40;18.93;;;;;;;;;;5095344;28;20408;-71
2021/12/19 01:56:57;;;;;;;45.00;19.03;;;;;;;;;;5096744;28;20535;-72
2021/12/19 01:59:23;;;;;;;43.10;18.20;;;;;;;;;;5095713;28;20463;-73
2021/12/19 02:01:52;;;;;;;42.40;17.97;;;;;;;;;;5096893;28;20396;-71
2021/12/19 02:04:18;;;;;;;41.73;17.87;;;;;;;;;;5096974;28;20547;-73
2021/12/19 02:06:45;;;;;;;44.80;19.93;;;;;;;;;;5096900;28;20409;-73
2021/12/19 02:09:11;;;;;;;36.80;16.40;;;;;;;;;;5095485;28;20439;-72
2021/12/19 02:11:38;;;;;;;42.90;17.40;;;;;;;;;;5096826;28;20429;-72
2021/12/19 02:14:05;;;;;;;39.97;17.00;;;;;;;;;;5096522;28;20434;-72
2021/12/19 02:16:31;;;;;;;34.53;14.67;;;;;;;;;;5096616;28;20496;-73
2021/12/19 02:18:58;;;;;;;37.43;16.70;;;;;;;;;;5096397;28;20423;-71
2021/12/19 02:21:24;;;;;;;35.10;16.53;;;;;;;;;;5096621;28;20482;-71
2021/12/19 02:23:50;;;;;;;44.30;16.50;;;;;;;;;;5095257;28;20521;-73
2021/12/19 02:26:17;;;;;;;39.57;16.20;;;;;;;;;;5096473;28;20397;-73
2021/12/19 02:28:43;;;;;;;34.27;15.07;;;;;;;;;;5096452;28;20884;-71
2021/12/19 02:31:10;;;;;;;33.67;16.40;;;;;;;;;;5096548;28;20409;-74
2021/12/19 02:33:41;;;;;;;35.87;15.43;;;;;;;;;;5095054;28;20472;-73
2021/12/19 02:49:34;;;;;;;25.20;11.47;;;;;;;;;;5096152;28;20400;-71
2021/12/19 02:52:01;;;;;;;25.80;11.33;;;;;;;;;;5094724;28;20900;-72
2021/12/19 02:54:28;;;;;;;29.10;12.80;;;;;;;;;;5095973;28;20412;-72
2021/12/19 02:56:55;;;;;;;34.43;14.97;;;;;;;;;;5095708;28;20872;-72
2021/12/19 02:59:21;;;;;;;30.47;12.60;;;;;;;;;;5094413;28;20413;-71
2021/12/19 03:01:47;;;;;;;30.57;13.67;;;;;;;;;;5095712;28;20466;-72
2021/12/19 03:04:13;;;;;;;31.13;12.80;;;;;;;;;;5095719;28;20533;-71
2021/12/19 03:06:44;;;;;;;18.43;10.63;;;;;;;;;;5094637;28;20441;-71
2021/12/19 03:09:10;;;;;;;19.80;11.30;;;;;;;;;;5095713;28;20504;-72
2021/12/19 03:19:41;;;;;;;23.27;11.33;;;;;;;;;;5095696;28;20800;-73
2021/12/19 03:22:07;;;;;;;21.83;10.70;;;;;;;;;;5094150;28;20767;-71
2021/12/19 03:24:33;;;;;;;24.60;11.63;;;;;;;;;;5095382;28;20480;-72
2021/12/19 03:26:59;;;;;;;23.10;10.70;;;;;;;;;;5095333;28;20397;-71
2021/12/19 03:29:25;;;;;;;18.90;10.80;;;;;;;;;;5095196;28;20773;-71
2021/12/19 03:31:51;;;;;;;25.50;11.50;;;;;;;;;;5095244;28;20397;-71
2021/12/19 03:34:17;;;;;;;24.43;11.53;;;;;;;;;;5095231;28;20408;-71
2021/12/19 03:36:43;;;;;;;23.30;11.20;;;;;;;;;;5095182;28;20416;-71
2021/12/19 03:39:24;;;;;;;21.70;10.80;;;;;;;;;;5095008;28;20397;-71
2021/12/19 03:41:50;;;;;;;23.80;10.80;;;;;;;;;;5095161;28;20393;-71
2021/12/19 03:44:18;;;;;;;19.33;8.90;;;;;;;;;;5094749;28;20488;-71
2021/12/19 03:46:44;;;;;;;20.30;10.70;;;;;;;;;;5095011;28;20407;-71
2021/12/19 03:49:10;;;;;;;22.10;9.60;;;;;;;;;;5094831;28;20428;-71
2021/12/19 03:51:37;;;;;;;22.57;9.97;;;;;;;;;;5094835;28;20863;-71
2021/12/19 03:54:03;;;;;;;20.60;10.13;;;;;;;;;;5094832;28;20500;-71
2021/12/19 03:56:31;;;;;;;25.10;11.50;;;;;;;;;;5094146;28;20476;-71
2021/12/19 03:58:57;;;;;;;21.03;10.10;;;;;;;;;;5094685;28;20421;-71
2021/12/19 04:01:23;;;;;;;19.63;10.20;;;;;;;;;;5094694;28;20402;-73
2021/12/19 04:03:49;;;;;;;18.07;9.70;;;;;;;;;;5094559;28;20947;-72
2021/12/19 04:06:15;;;;;;;16.93;7.43;;;;;;;;;;5093362;28;20745;-73
2021/12/19 04:08:41;;;;;;;20.30;9.57;;;;;;;;;;5094610;28;20457;-71
2021/12/19 04:11:07;;;;;;;18.23;9.10;;;;;;;;;;5094508;28;20394;-73
2021/12/19 04:13:33;;;;;;;14.80;7.73;;;;;;;;;;5094359;28;20436;-74
2021/12/19 04:16:00;;;;;;;18.87;9.77;;;;;;;;;;5093234;28;20454;-71
2021/12/19 04:18:26;;;;;;;21.33;9.00;;;;;;;;;;5094067;28;20412;-71
2021/12/19 04:20:51;;;;;;;14.00;7.50;;;;;;;;;;5094341;28;20411;-72
2021/12/19 04:23:18;;;;;;;20.37;9.03;;;;;;;;;;5094170;28;20557;-72
2021/12/19 04:25:44;;;;;;;17.93;8.73;;;;;;;;;;5094241;28;20414;-73
2021/12/19 04:28:10;;;;;;;17.07;9.80;;;;;;;;;;5094218;28;20429;-72
2021/12/19 04:30:36;;;;;;;15.30;8.57;;;;;;;;;;5092806;28;20420;-73
2021/12/19 04:33:06;;;;;;;13.40;8.30;;;;;;;;;;5094081;28;20398;-72
2021/12/19 04:35:34;;;;;;;14.63;7.67;;;;;;;;;;5094043;28;20404;-71
2021/12/19 04:41:11;;;;;;;15.33;7.27;;;;;;;;;;5093825;28;20523;-71
2021/12/19 05:00:06;;;;;;;16.93;8.97;;;;;;;;;;5093525;28;20409;-72
2021/12/19 05:16:04;;;;;;;16.37;7.90;;;;;;;;;;5093487;28;20405;-71
2021/12/19 05:18:33;;;;;;;17.17;8.37;;;;;;;;;;5092028;28;20407;-71
2021/12/19 05:21:05;;;;;;;19.30;8.60;;;;;;;;;;5093520;28;20523;-73
2021/12/19 05:25:58;;;;;;;15.57;7.13;;;;;;;;;;5093308;28;20513;-72
2021/12/19 05:28:24;;;;;;;13.87;8.10;;;;;;;;;;5091264;28;20445;-70
2021/12/19 05:30:50;;;;;;;16.33;8.03;;;;;;;;;;5093295;28;20865;-71
2021/12/19 05:33:16;;;;;;;19.53;7.50;;;;;;;;;;5092161;28;20471;-72
2021/12/19 05:44:08;;;;;;;19.40;8.07;;;;;;;;;;5093170;28;20403;-71
2021/12/19 05:46:36;;;;;;;19.43;9.70;;;;;;;;;;5093070;28;20396;-72
2021/12/19 05:49:04;;;;;;;19.17;9.50;;;;;;;;;;5093077;28;20405;-72
2021/12/19 05:51:30;;;;;;;17.50;8.33;;;;;;;;;;5091961;28;20492;-72
2021/12/19 05:53:56;;;;;;;16.97;7.57;;;;;;;;;;5092942;28;20443;-71
2021/12/19 05:56:22;;;;;;;18.50;8.80;;;;;;;;;;5092747;28;20778;-72
2021/12/19 05:58:48;;;;;;;19.87;8.97;;;;;;;;;;5092886;28;20408;-72
2021/12/19 06:01:14;;;;;;;22.20;9.20;;;;;;;;;;5093090;28;20401;-72
2021/12/19 06:03:40;;;;;;;15.70;8.07;;;;;;;;;;5092860;28;20483;-71
2021/12/19 06:06:07;;;;;;;16.30;7.57;;;;;;;;;;5092933;28;20404;-71
2021/12/19 06:08:33;;;;;;;19.57;8.50;;;;;;;;;;5092941;28;20511;-71
2021/12/19 06:10:59;;;;;;;16.83;7.53;;;;;;;;;;5092758;28;20405;-70
2021/12/19 06:13:25;;;;;;;12.50;7.17;;;;;;;;;;5092811;28;20502;-70
2021/12/19 06:15:54;;;;;;;13.73;7.10;;;;;;;;;;5091609;28;20967;-71
2021/12/19 06:18:20;;;;;;;12.80;6.17;;;;;;;;;;5091465;28;20756;-70
2021/12/19 06:20:46;;;;;;;10.30;5.47;;;;;;;;;;5092862;28;20439;-70
2021/12/19 06:23:12;;;;;;;10.63;6.17;;;;;;;;;;5092594;28;20476;-70
2021/12/19 06:25:45;;;;;;;12.77;7.20;;;;;;;;;;5092766;28;20878;-70
2021/12/19 06:28:11;;;;;;;11.37;7.10;;;;;;;;;;5091422;28;20409;-71
2021/12/19 06:30:37;;;;;;;15.93;7.73;;;;;;;;;;5092746;28;20431;-70
2021/12/19 06:33:03;;;;;;;17.20;7.80;;;;;;;;;;5091524;28;20471;-70
2021/12/19 06:35:30;;;;;;;15.47;7.80;;;;;;;;;;5092638;28;20942;-71
2021/12/19 06:37:56;;;;;;;12.80;7.70;;;;;;;;;;5092577;28;20461;-70
2021/12/19 06:40:23;;;;;;;15.67;7.70;;;;;;;;;;5094322;28;20395;-69
2021/12/19 06:42:49;;;;;;;14.67;7.10;;;;;;;;;;5096079;28;20403;-69
2021/12/19 06:45:16;;;;;;;20.03;8.13;;;;;;;;;;5096096;28;20896;-72
2021/12/19 06:47:42;;;;;;;12.50;7.13;;;;;;;;;;5095968;28;20443;-71
2021/12/19 06:50:08;;;;;;;13.93;6.77;;;;;;;;;;5096018;28;20889;-72
2021/12/19 06:52:35;;;;;;;12.60;7.20;;;;;;;;;;5096017;28;20753;-70
2021/12/19 06:55:01;;;;;;;14.13;8.20;;;;;;;;;;5096008;28;20411;-71
2021/12/19 06:57:27;;;;;;;11.93;6.80;;;;;;;;;;5095575;28;20465;-71
2021/12/19 06:59:53;;;;;;;12.90;6.60;;;;;;;;;;5095822;28;20553;-71
2021/12/19 07:02:19;;;;;;;10.77;5.90;;;;;;;;;;5095959;28;20401;-70
2021/12/19 07:04:45;;;;;;;12.93;5.90;;;;;;;;;;5095769;28;20517;-72
2021/12/19 07:07:12;;;;;;;12.97;6.40;;;;;;;;;;5095754;28;20492;-71
2021/12/19 07:09:38;;;;;;;12.03;6.20;;;;;;;;;;5095712;28;20404;-72
2021/12/19 07:12:05;;;;;;;11.03;5.87;;;;;;;;;;5095671;28;20432;-71
2021/12/19 07:14:31;;;;;;;11.37;5.77;;;;;;;;;;5095424;28;20822;-71
2021/12/19 07:16:57;;;;;;;11.60;6.60;;;;;;;;;;5095350;28;20415;-73
2021/12/19 07:19:23;;;;;;;15.87;7.50;;;;;;;;;;5095453;28;20401;-72
2021/12/19 07:21:49;;;;;;;10.60;6.50;;;;;;;;;;5095505;28;20417;-72
2021/12/19 07:24:15;;;;;;;9.70;5.57;;;;;;;;;;5095282;28;20474;-73
2021/12/19 07:26:41;;;;;;;11.13;5.93;;;;;;;;;;5094093;28;20921;-71
2021/12/19 07:29:08;;;;;;;13.90;5.67;;;;;;;;;;5095329;28;20447;-71
2021/12/19 07:31:37;;;;;;;10.37;4.67;;;;;;;;;;5095354;28;20444;-72
2021/12/19 07:34:03;;;;;;;9.60;5.27;;;;;;;;;;5095194;28;20419;-71
2021/12/19 07:36:36;;;;;;;10.30;4.97;;;;;;;;;;5095002;28;20466;-71
2021/12/19 07:39:09;;;;;;;10.33;4.90;;;;;;;;;;5095102;28;20405;-72
2021/12/19 07:41:35;;;;;;;10.60;5.53;;;;;;;;;;5095170;28;20410;-72
2021/12/19 07:44:01;;;;;;;10.00;6.20;;;;;;;;;;5093564;28;20971;-73
2021/12/19 07:46:27;;;;;;;11.83;5.53;;;;;;;;;;5094988;28;20435;-73
2021/12/19 07:48:53;;;;;;;12.33;5.83;;;;;;;;;;5094839;28;20409;-73
2021/12/19 07:51:19;;;;;;;7.53;4.53;;;;;;;;;;5093050;28;20496;-73
2021/12/19 07:53:45;;;;;;;11.67;5.27;;;;;;;;;;5094884;28;20785;-72
2021/12/19 07:56:11;;;;;;;8.90;4.90;;;;;;;;;;5094787;28;20417;-72
2021/12/19 07:58:37;;;;;;;9.30;5.17;;;;;;;;;;5094480;28;20420;-73
2021/12/19 08:01:03;;;;;;;8.80;4.93;;;;;;;;;;5094672;28;20413;-73
2021/12/19 08:03:29;;;;;;;8.07;5.13;;;;;;;;;;5094694;28;21060;-73
2021/12/19 08:05:55;;;;;;;12.27;5.80;;;;;;;;;;5094701;28;20406;-73
2021/12/19 08:08:26;;;;;;;8.43;4.30;;;;;;;;;;5094519;28;20451;-73
2021/12/19 08:13:38;;;;;;;14.80;5.50;;;;;;;;;;5094839;28;20462;-73
2021/12/19 08:16:05;;;;;;;8.23;5.10;;;;;;;;;;5094358;28;20427;-72
2021/12/19 08:18:31;;;;;;;12.10;5.20;;;;;;;;;;5094243;28;20468;-74
2021/12/19 08:20:57;;;;;;;9.07;4.30;;;;;;;;;;5093008;28;20426;-72
2021/12/19 08:23:23;;;;;;;10.33;4.90;;;;;;;;;;5094230;28;20465;-72
2021/12/19 08:25:49;;;;;;;9.97;5.00;;;;;;;;;;5094172;28;20879;-73
2021/12/19 08:28:15;;;;;;;8.60;4.50;;;;;;;;;;5094105;28;20428;-73
2021/12/19 08:30:41;;;;;;;10.13;4.50;;;;;;;;;;5092894;28;20780;-74
2021/12/19 08:33:07;;;;;;;10.70;5.07;;;;;;;;;;5094142;28;20476;-73
2021/12/19 08:35:33;;;;;;;10.17;5.23;;;;;;;;;;5094025;28;20417;-72
2021/12/19 08:38:00;;;;;;;9.43;5.00;;;;;;;;;;5093924;28;20401;-73
2021/12/19 08:40:27;;;;;;;9.50;5.37;;;;;;;;;;5094014;28;20404;-73
2021/12/19 08:42:54;;;;;;;9.10;4.63;;;;;;;;;;5092488;28;20419;-73
2021/12/19 08:45:20;;;;;;;8.40;4.50;;;;;;;;;;5092628;28;20436;-73
2021/12/19 08:47:46;;;;;;;6.27;3.47;;;;;;;;;;5093844;28;20398;-73
2021/12/19 08:50:13;;;;;;;8.30;4.30;;;;;;;;;;5092679;28;20421;-72
2021/12/19 08:52:39;;;;;;;8.30;5.33;;;;;;;;;;5092573;28;20420;-72
2021/12/19 08:55:05;;;;;;;7.47;4.13;;;;;;;;;;5093733;28;20408;-75
2021/12/19 08:57:31;;;;;;;9.20;5.07;;;;;;;;;;5093418;28;20509;-73
2021/12/19 08:59:57;;;;;;;7.93;4.60;;;;;;;;;;5093553;28;20975;-75
2021/12/19 09:02:24;;;;;;;7.47;4.50;;;;;;;;;;5092375;28;20507;-73
2021/12/19 09:04:50;;;;;;;7.97;5.03;;;;;;;;;;5091421;28;20478;-73
2021/12/19 09:07:18;;;;;;;7.93;4.47;;;;;;;;;;5093490;28;20761;-72
2021/12/19 09:09:44;;;;;;;9.33;4.50;;;;;;;;;;5093451;28;20408;-73
2021/12/19 09:12:10;;;;;;;7.30;4.10;;;;;;;;;;5092295;28;20489;-72
2021/12/19 09:14:36;;;;;;;6.53;4.03;;;;;;;;;;5092153;28;20869;-72
2021/12/19 09:17:02;;;;;;;8.73;4.00;;;;;;;;;;5093349;28;20400;-73
2021/12/19 09:19:29;;;;;;;7.23;3.40;;;;;;;;;;5092025;28;20923;-73
2021/12/19 09:21:55;;;;;;;4.77;3.40;;;;;;;;;;5093397;28;20417;-73
2021/12/19 09:24:21;;;;;;;6.97;4.57;;;;;;;;;;5093228;28;20467;-74
2021/12/19 09:26:47;;;;;;;7.80;4.10;;;;;;;;;;5092058;28;20410;-73
2021/12/19 09:29:13;;;;;;;5.40;3.50;;;;;;;;;;5093219;28;20504;-72
2021/12/19 09:31:39;;;;;;;8.83;4.07;;;;;;;;;;5092034;28;20419;-73
2021/12/19 09:34:06;;;;;;;6.50;3.57;;;;;;;;;;5092039;28;20412;-73
2021/12/19 09:36:32;;;;;;;6.70;3.70;;;;;;;;;;5093172;28;20431;-73
2021/12/19 09:38:58;;;;;;;6.03;3.00;;;;;;;;;;5093234;28;20413;-73
2021/12/19 09:41:29;;;;;;;4.30;3.20;;;;;;;;;;5093151;28;20881;-73
2021/12/19 09:43:59;;;;;;;5.63;3.27;;;;;;;;;;5091900;28;20481;-73
2021/12/19 09:46:28;;;;;;;5.20;3.00;;;;;;;;;;5093182;28;20488;-73
2021/12/19 09:48:54;;;;;;;4.70;3.07;;;;;;;;;;5093166;28;20398;-73
2021/12/19 09:51:20;;;;;;;4.30;3.03;;;;;;;;;;5093210;28;20433;-73
2021/12/19 09:53:47;;;;;;;3.53;2.20;;;;;;;;;;5093025;28;20403;-73
2021/12/19 09:56:13;;;;;;;5.67;3.30;;;;;;;;;;5092968;28;20412;-73
2021/12/19 09:58:40;;;;;;;4.70;2.83;;;;;;;;;;5092867;28;20403;-72
2021/12/19 10:01:07;;;;;;;4.50;2.30;;;;;;;;;;5093122;28;20401;-73
2021/12/19 10:03:35;;;;;;;3.97;2.30;;;;;;;;;;5091643;28;20540;-73
2021/12/19 10:06:19;;;;;;;3.83;2.67;;;;;;;;;;5093039;28;20908;-72
2021/12/19 10:08:46;;;;;;;4.13;2.97;;;;;;;;;;5092959;28;20876;-73
2021/12/19 10:11:30;;;;;;;6.40;3.20;;;;;;;;;;5093000;28;20872;-74
2021/12/19 10:13:56;;;;;;;5.53;2.70;;;;;;;;;;5092917;28;20437;-73
2021/12/19 10:16:24;;;;;;;5.13;3.13;;;;;;;;;;5095174;28;20862;-73
2021/12/19 10:18:54;;;;;;;4.17;2.57;;;;;;;;;;5096654;28;20413;-73
2021/12/19 10:21:21;;;;;;;4.17;3.10;;;;;;;;;;5096578;28;20420;-73
2021/12/19 10:23:47;;;;;;;3.33;2.10;;;;;;;;;;5096551;28;20558;-72
2021/12/19 10:26:14;;;;;;;4.37;2.87;;;;;;;;;;5096509;28;20458;-71
2021/12/19 10:28:53;;;;;;;6.57;2.90;;;;;;;;;;5095149;28;20482;-72
2021/12/19 10:31:19;;;;;;;3.23;2.77;;;;;;;;;;5096400;28;20396;-73
2021/12/19 10:33:46;;;;;;;3.83;2.50;;;;;;;;;;5096525;28;20754;-73
2021/12/19 10:36:12;;;;;;;3.10;2.83;;;;;;;;;;5096501;28;20408;-72
2021/12/19 10:38:39;;;;;;;2.13;1.83;;;;;;;;;;5096128;28;20396;-72
2021/12/19 10:41:08;;;;;;;2.70;2.07;;;;;;;;;;5096187;28;20484;-72
2021/12/19 10:43:34;;;;;;;1.80;1.70;;;;;;;;;;5094812;28;20598;-72
2021/12/19 10:46:02;;;;;;;2.50;2.07;;;;;;;;;;5095059;28;20412;-72
2021/12/19 10:48:36;;;;;;;3.10;2.07;;;;;;;;;;5094924;28;20413;-72
2021/12/19 10:51:07;;;;;;;2.90;2.37;;;;;;;;;;5096186;28;20550;-72
2021/12/19 10:53:41;;;;;;;2.87;1.97;;;;;;;;;;5096047;28;20389;-71
2021/12/19 10:56:13;;;;;;;3.10;2.30;;;;;;;;;;5095939;28;20412;-71
2021/12/19 10:58:43;;;;;;;2.33;2.13;;;;;;;;;;5094560;28;20575;-72
2021/12/19 11:01:13;;;;;;;3.73;2.20;;;;;;;;;;5094713;28;20410;-72
2021/12/19 11:03:40;;;;;;;2.17;1.97;;;;;;;;;;5095813;28;20958;-73
2021/12/19 11:06:18;;;;;;;3.20;2.43;;;;;;;;;;5095814;28;20496;-72
2021/12/19 11:08:45;;;;;;;4.10;3.00;;;;;;;;;;5094505;28;20959;-71
2021/12/19 11:11:12;;;;;;;3.53;2.63;;;;;;;;;;5095756;28;20446;-72
2021/12/19 11:13:38;;;;;;;4.60;2.70;;;;;;;;;;5094299;28;20998;-72
2021/12/19 11:16:04;;;;;;;4.23;2.70;;;;;;;;;;5095640;28;20486;-73
2021/12/19 11:18:30;;;;;;;5.23;2.53;;;;;;;;;;5095471;28;20424;-71
2021/12/19 11:20:56;;;;;;;4.03;2.53;;;;;;;;;;5095498;28;20389;-71
2021/12/19 11:23:23;;;;;;;3.57;2.70;;;;;;;;;;5094039;28;20499;-71
2021/12/19 11:25:49;;;;;;;4.57;3.13;;;;;;;;;;5095006;28;20396;-72
2021/12/19 11:28:16;;;;;;;4.33;2.83;;;;;;;;;;5094912;28;20405;-71
2021/12/19 11:30:42;;;;;;;5.30;3.10;;;;;;;;;;5095461;28;20396;-72
2021/12/19 11:33:23;;;;;;;4.53;3.33;;;;;;;;;;5095306;28;20467;-71
2021/12/19 11:35:50;;;;;;;5.00;3.10;;;;;;;;;;5095289;28;20405;-73
2021/12/19 11:38:21;;;;;;;4.37;2.80;;;;;;;;;;5095104;28;20428;-73
2021/12/19 11:40:47;;;;;;;4.57;3.17;;;;;;;;;;5095217;28;20478;-72
2021/12/19 11:43:14;;;;;;;4.17;3.27;;;;;;;;;;5094901;28;20896;-72
2021/12/19 11:45:53;;;;;;;3.73;2.63;;;;;;;;;;5094977;28;20417;-72
2021/12/19 11:48:26;;;;;;;3.50;2.90;;;;;;;;;;5095081;28;20727;-71
2021/12/19 11:50:53;;;;;;;5.50;3.27;;;;;;;;;;5093596;28;20487;-71
2021/12/19 11:53:21;;;;;;;5.20;3.40;;;;;;;;;;5094795;28;20397;-71
2021/12/19 11:55:53;;;;;;;4.27;2.77;;;;;;;;;;5094725;28;20940;-70
2021/12/19 11:58:22;;;;;;;5.17;3.97;;;;;;;;;;5094346;28;20465;-71
2021/12/19 12:00:50;;;;;;;7.00;3.70;;;;;;;;;;5093353;28;20407;-70
2021/12/19 12:03:21;;;;;;;4.70;3.07;;;;;;;;;;5094667;28;20552;-72
2021/12/19 12:06:14;;;;;;;5.00;3.50;;;;;;;;;;5094522;28;20423;-72
2021/12/19 12:09:00;;;;;;;4.73;3.60;;;;;;;;;;5088983;28;21029;-71
2021/12/19 12:11:26;;;;;;;4.70;3.13;;;;;;;;;;5094272;28;20408;-71
2021/12/19 12:13:52;;;;;;;5.20;3.90;;;;;;;;;;5094286;28;20423;-74
2021/12/19 12:16:29;;;;;;;4.53;3.23;;;;;;;;;;5094396;28;20761;-72
2021/12/19 12:18:58;;;;;;;4.77;3.60;;;;;;;;;;5094189;28;20407;-72
2021/12/19 12:21:28;;;;;;;4.70;3.33;;;;;;;;;;5093039;28;20495;-72
2021/12/19 12:24:00;;;;;;;5.53;2.87;;;;;;;;;;5094173;28;20805;-72
2021/12/19 12:26:40;;;;;;;4.47;3.00;;;;;;;;;;5094264;28;20409;-71
2021/12/19 12:29:06;;;;;;;5.13;3.50;;;;;;;;;;5092872;28;20412;-71
2021/12/19 12:31:33;;;;;;;5.67;3.80;;;;;;;;;;5092931;28;20836;-71
2021/12/19 12:33:59;;;;;;;3.97;3.20;;;;;;;;;;5094079;28;20495;-72
2021/12/19 12:36:25;;;;;;;3.93;3.30;;;;;;;;;;5093967;28;20727;-71
2021/12/19 12:38:52;;;;;;;7.30;3.70;;;;;;;;;;5093760;28;20472;-71
2021/12/19 12:41:40;;;;;;;4.37;3.30;;;;;;;;;;5094005;28;20401;-72
2021/12/19 12:44:13;;;;;;;4.90;3.70;;;;;;;;;;5093921;28;20472;-70
2021/12/19 12:46:41;;;;;;;5.90;3.93;;;;;;;;;;5092559;28;20416;-71
2021/12/19 12:49:14;;;;;;;6.27;3.67;;;;;;;;;;5092413;28;20479;-71
2021/12/19 12:51:42;;;;;;;4.70;3.80;;;;;;;;;;5093700;28;20458;-71
2021/12/19 12:54:15;;;;;;;6.83;4.37;;;;;;;;;;5092420;28;20412;-72
2021/12/19 12:56:45;;;;;;;6.10;4.13;;;;;;;;;;5093366;28;20444;-72
2021/12/19 12:59:12;;;;;;;6.30;3.87;;;;;;;;;;5093631;28;20405;-71
2021/12/19 13:01:40;;;;;;;6.07;3.60;;;;;;;;;;5093337;28;20400;-70
2021/12/19 13:04:13;;;;;;;6.80;4.03;;;;;;;;;;5093522;28;20858;-73
2021/12/19 13:06:41;;;;;;;6.00;3.90;;;;;;;;;;5093531;28;20408;-72
2021/12/19 13:09:19;;;;;;;9.93;5.20;;;;;;;;;;5093491;28;20549;-71
2021/12/19 13:11:47;;;;;;;5.63;3.43;;;;;;;;;;5093417;28;20413;-71
2021/12/19 13:14:18;;;;;;;6.63;3.77;;;;;;;;;;5093300;28;20421;-71
2021/12/19 13:16:49;;;;;;;3.77;3.27;;;;;;;;;;5092093;28;20425;-72
2021/12/19 13:19:42;;;;;;;5.60;3.70;;;;;;;;;;5092081;28;20895;-73
2021/12/19 13:22:13;;;;;;;6.27;4.53;;;;;;;;;;5054213;28;20424;-74
2021/12/19 13:24:40;;;;;;;5.77;4.30;;;;;;;;;;5093190;28;20475;-72
2021/12/19 13:27:20;;;;;;;7.10;4.00;;;;;;;;;;5091951;28;20895;-73
2021/12/19 13:29:57;;;;;;;7.70;4.37;;;;;;;;;;5093195;28;20454;-72
2021/12/19 13:32:23;;;;;;;6.50;3.90;;;;;;;;;;5092013;28;20415;-73
2021/12/19 13:34:50;;;;;;;5.33;4.03;;;;;;;;;;5093389;28;20409;-72
2021/12/19 13:37:16;;;;;;;5.83;3.80;;;;;;;;;;5093052;28;20413;-72
2021/12/19 13:39:45;;;;;;;5.40;3.63;;;;;;;;;;5092997;28;20903;-72
2021/12/19 13:42:12;;;;;;;5.10;3.60;;;;;;;;;;5093161;28;20548;-73
2021/12/19 13:44:38;;;;;;;8.63;4.93;;;;;;;;;;5092954;28;20475;-71
2021/12/19 13:47:11;;;;;;;7.20;4.60;;;;;;;;;;5093020;28;20420;-72
2021/12/19 13:49:37;;;;;;;6.97;3.80;;;;;;;;;;5092355;28;20421;-73
2021/12/19 13:52:03;;;;;;;5.87;3.97;;;;;;;;;;5095706;28;20510;-71
2021/12/19 13:54:31;;;;;;;5.00;4.10;;;;;;;;;;5097081;28;20401;-71
2021/12/19 13:56:58;;;;;;;5.67;3.90;;;;;;;;;;5095439;28;20453;-72
2021/12/19 13:59:24;;;;;;;5.13;3.60;;;;;;;;;;5096955;28;20404;-74
2021/12/19 14:01:51;;;;;;;7.50;3.77;;;;;;;;;;5095642;28;20452;-73
2021/12/19 14:04:18;;;;;;;8.30;4.57;;;;;;;;;;5096835;28;20819;-73
2021/12/19 14:06:45;;;;;;;6.77;4.17;;;;;;;;;;5096936;28;20404;-73
2021/12/19 14:09:13;;;;;;;5.00;3.90;;;;;;;;;;5096873;28;20409;-73
2021/12/19 14:11:42;;;;;;;6.53;3.90;;;;;;;;;;5096927;28;20400;-72
2021/12/19 14:14:27;;;;;;;7.60;4.50;;;;;;;;;;5096736;28;20432;-73
2021/12/19 14:16:58;;;;;;;6.33;4.50;;;;;;;;;;5095410;28;20416;-73
2021/12/19 14:19:28;;;;;;;7.13;4.90;;;;;;;;;;5096770;28;20913;-72
2021/12/19 14:21:55;;;;;;;7.50;5.20;;;;;;;;;;5096691;28;20428;-73
2021/12/19 14:24:41;;;;;;;8.97;5.50;;;;;;;;;;5096610;28;20463;-73
2021/12/19 14:27:10;;;;;;;9.00;6.37;;;;;;;;;;5096630;28;20417;-73
2021/12/19 14:29:37;;;;;;;10.50;5.57;;;;;;;;;;5095286;28;20420;-72
2021/12/19 14:32:09;;;;;;;11.23;6.30;;;;;;;;;;5096527;28;20403;-74
2021/12/19 14:34:35;;;;;;;9.70;5.57;;;;;;;;;;5095257;28;20484;-71
2021/12/19 14:37:20;;;;;;;9.87;6.60;;;;;;;;;;5095070;28;20420;-72
2021/12/19 14:40:01;;;;;;;8.80;6.53;;;;;;;;;;5095050;28;20410;-70
2021/12/19 14:42:29;;;;;;;12.73;7.30;;;;;;;;;;5096325;28;20403;-70
2021/12/19 14:44:59;;;;;;;11.80;7.00;;;;;;;;;;5096241;28;20569;-71
2021/12/19 14:47:36;;;;;;;9.73;6.80;;;;;;;;;;5096159;28;20411;-71
2021/12/19 14:50:11;;;;;;;13.50;7.03;;;;;;;;;;5096165;28;20420;-73
2021/12/19 14:52:37;;;;;;;10.30;6.80;;;;;;;;;;5094893;28;20405;-72
2021/12/19 14:55:18;;;;;;;12.30;6.70;;;;;;;;;;5096045;28;20410;-72
2021/12/19 14:57:44;;;;;;;11.07;7.10;;;;;;;;;;5095649;28;20795;-71
2021/12/19 15:00:10;;;;;;;12.33;6.43;;;;;;;;;;5096041;28;20397;-72
2021/12/19 15:02:36;;;;;;;11.73;6.17;;;;;;;;;;5095843;28;20401;-72
2021/12/19 15:05:02;;;;;;;10.70;5.97;;;;;;;;;;5094441;28;20464;-72
2021/12/19 15:07:30;;;;;;;7.40;6.00;;;;;;;;;;5094534;28;20430;-73
2021/12/19 15:09:56;;;;;;;8.18;5.78;;;;;;;;;;5094519;28;20912;-73
2021/12/19 15:12:22;;;;;;;11.83;6.50;;;;;;;;;;5094508;28;20179;-71
2021/12/19 15:14:48;;;;;;;9.90;6.10;;;;;;;;;;5095603;28;20440;-71
2021/12/19 15:17:14;;;;;;;12.70;6.70;;;;;;;;;;5095505;28;20406;-72
2021/12/19 15:19:40;;;;;;;10.33;5.67;;;;;;;;;;5095714;28;20440;-71
2021/12/19 15:22:06;;;;;;;10.80;6.07;;;;;;;;;;5095526;28;20436;-72
2021/12/19 15:24:32;;;;;;;10.20;6.03;;;;;;;;;;5095478;28;20500;-71
2021/12/19 15:26:59;;;;;;;9.83;5.90;;;;;;;;;;5095446;28;20401;-72
2021/12/19 15:29:25;;;;;;;11.07;6.80;;;;;;;;;;5095419;28;20410;-72
2021/12/19 15:31:52;;;;;;;11.00;6.40;;;;;;;;;;5094211;28;20968;-73
2021/12/19 15:34:18;;;;;;;13.27;6.63;;;;;;;;;;5095358;28;20408;-73
2021/12/19 15:36:44;;;;;;;11.40;7.30;;;;;;;;;;5095204;28;20412;-71
2021/12/19 15:39:10;;;;;;;10.10;6.57;;;;;;;;;;5093971;28;20422;-72
2021/12/19 15:41:36;;;;;;;13.87;7.13;;;;;;;;;;5095167;28;20428;-73
2021/12/19 15:44:02;;;;;;;8.93;5.97;;;;;;;;;;5094912;28;20974;-72
2021/12/19 15:46:28;;;;;;;9.00;6.07;;;;;;;;;;5095109;28;20863;-71
2021/12/19 15:48:56;;;;;;;11.03;6.27;;;;;;;;;;5095003;28;20413;-73